sensor_id;sensor_type;location;lat;lon;timestamp;pressure;altitude;pressure_sealevel;temperature;humidity
43217;BME280;60511;42.686;23.300;2023-04-19T00:01:19;94268.88;;;23.21;29.72
43217;BME280;60511;42.686;23.300;2023-04-19T00:03:20;94285.69;;;23.34;29.40
43217;BME280;60511;42.686;23.300;2023-04-19T00:05:23;94288.81;;;23.36;29.43
43217;BME280;60511;42.686;23.300;2023-04-19T00:07:23;94258.03;;;23.17;29.57
43217;BME280;60511;42.686;23.300;2023-04-19T00:09:24;94294.16;;;23.32;29.55
43217;BME280;60511;42.686;23.300;2023-04-19T00:11:25;94280.47;;;23.21;29.50
43217;BME280;60511;42.686;23.300;2023-04-19T00:13:25;94278.97;;;23.24;29.69
43217;BME280;60511;42.686;23.300;2023-04-19T00:15:25;94275.50;;;23.23;29.64
43217;BME280;60511;42.686;23.300;2023-04-19T00:17:26;94261.09;;;23.16;29.65
43217;BME280;60511;42.686;23.300;2023-04-19T00:19:27;94264.50;;;23.13;29.79
43217;BME280;60511;42.686;23.300;2023-04-19T00:21:29;94265.63;;;23.12;29.80
43217;BME280;60511;42.686;23.300;2023-04-19T00:23:30;94273.56;;;23.24;29.66
43217;BME280;60511;42.686;23.300;2023-04-19T00:25:31;94281.78;;;23.31;29.82
43217;BME280;60511;42.686;23.300;2023-04-19T00:27:39;94257.59;;;23.15;29.55
43217;BME280;60511;42.686;23.300;2023-04-19T00:29:39;94278.63;;;23.25;29.54
43217;BME280;60511;42.686;23.300;2023-04-19T00:31:40;94258.31;;;23.12;29.46
43217;BME280;60511;42.686;23.300;2023-04-19T00:33:48;94274.34;;;23.24;29.65
43217;BME280;60511;42.686;23.300;2023-04-19T00:35:52;94276.69;;;23.26;29.44
43217;BME280;60511;42.686;23.300;2023-04-19T00:38:00;94274.09;;;23.33;29.48
43217;BME280;60511;42.686;23.300;2023-04-19T00:40:01;94274.06;;;23.30;29.51
43217;BME280;60511;42.686;23.300;2023-04-19T00:42:01;94257.22;;;23.17;29.68
43217;BME280;60511;42.686;23.300;2023-04-19T00:44:02;94258.38;;;23.16;29.76
43217;BME280;60511;42.686;23.300;2023-04-19T00:46:02;94279.06;;;23.31;29.63
43217;BME280;60511;42.686;23.300;2023-04-19T00:48:03;94259.41;;;23.31;29.91
43217;BME280;60511;42.686;23.300;2023-04-19T00:50:04;94232.81;;;23.10;29.61
43217;BME280;60511;42.686;23.300;2023-04-19T00:52:06;94266.25;;;23.24;29.88
43217;BME280;60511;42.686;23.300;2023-04-19T00:54:07;94257.00;;;23.25;29.48
43217;BME280;60511;42.686;23.300;2023-04-19T00:56:09;94253.06;;;23.19;29.71
43217;BME280;60511;42.686;23.300;2023-04-19T00:58:10;94266.41;;;23.35;29.46
43217;BME280;60511;42.686;23.300;2023-04-19T01:00:11;94250.47;;;23.26;29.59
43217;BME280;60511;42.686;23.300;2023-04-19T01:02:11;94269.84;;;23.32;29.44
43217;BME280;60511;42.686;23.300;2023-04-19T01:04:14;94267.09;;;23.29;29.42
43217;BME280;60511;42.686;23.300;2023-04-19T01:06:15;94245.16;;;23.11;30.01
43217;BME280;60511;42.686;23.300;2023-04-19T01:08:15;94263.84;;;23.19;29.81
43217;BME280;60511;42.686;23.300;2023-04-19T01:10:15;94260.78;;;23.21;29.82
43217;BME280;60511;42.686;23.300;2023-04-19T01:12:16;94255.75;;;23.19;29.78
43217;BME280;60511;42.686;23.300;2023-04-19T01:14:17;94212.81;;;22.91;30.05
43217;BME280;60511;42.686;23.300;2023-04-19T01:16:17;94223.25;;;22.93;29.97
43217;BME280;60511;42.686;23.300;2023-04-19T01:18:18;94243.56;;;23.06;29.89
43217;BME280;60511;42.686;23.300;2023-04-19T01:20:19;94146.75;;;22.39;29.87
43217;BME280;60511;42.686;23.300;2023-04-19T01:22:20;94233.69;;;22.94;29.84
43217;BME280;60511;42.686;23.300;2023-04-19T01:24:21;94252.81;;;23.05;29.59
43217;BME280;60511;42.686;23.300;2023-04-19T01:26:22;94257.41;;;23.04;29.73
43217;BME280;60511;42.686;23.300;2023-04-19T01:28:22;94265.56;;;23.08;29.60
43217;BME280;60511;42.686;23.300;2023-04-19T01:30:23;94250.09;;;23.05;29.76
43217;BME280;60511;42.686;23.300;2023-04-19T01:32:23;94221.25;;;22.90;29.50
43217;BME280;60511;42.686;23.300;2023-04-19T01:34:25;94261.00;;;23.12;30.05
43217;BME280;60511;42.686;23.300;2023-04-19T01:36:26;94256.03;;;23.14;29.82
43217;BME280;60511;42.686;23.300;2023-04-19T01:38:26;94228.69;;;22.96;29.71
43217;BME280;60511;42.686;23.300;2023-04-19T01:40:27;94245.84;;;23.04;29.93
43217;BME280;60511;42.686;23.300;2023-04-19T01:42:29;94257.19;;;23.13;29.64
43217;BME280;60511;42.686;23.300;2023-04-19T01:44:30;94212.25;;;22.82;29.56
43217;BME280;60511;42.686;23.300;2023-04-19T01:46:30;94252.00;;;23.04;29.81
43217;BME280;60511;42.686;23.300;2023-04-19T01:48:31;94251.22;;;23.04;29.63
43217;BME280;60511;42.686;23.300;2023-04-19T01:50:31;94258.13;;;23.01;29.71
43217;BME280;60511;42.686;23.300;2023-04-19T01:52:33;94219.09;;;22.76;29.73
43217;BME280;60511;42.686;23.300;2023-04-19T01:54:33;94244.13;;;22.96;30.28
43217;BME280;60511;42.686;23.300;2023-04-19T01:56:33;94247.25;;;22.98;30.08
43217;BME280;60511;42.686;23.300;2023-04-19T01:58:34;94241.06;;;22.97;29.69
43217;BME280;60511;42.686;23.300;2023-04-19T02:00:35;94243.47;;;23.02;29.87
43217;BME280;60511;42.686;23.300;2023-04-19T02:02:36;94258.47;;;23.00;29.71
43217;BME280;60511;42.686;23.300;2023-04-19T02:04:37;94249.50;;;22.96;29.72
43217;BME280;60511;42.686;23.300;2023-04-19T02:06:37;94232.47;;;22.92;29.72
43217;BME280;60511;42.686;23.300;2023-04-19T02:08:39;94220.31;;;22.78;29.93
43217;BME280;60511;42.686;23.300;2023-04-19T02:10:39;94233.31;;;22.96;29.71
43217;BME280;60511;42.686;23.300;2023-04-19T02:12:40;94249.72;;;23.06;29.78
43217;BME280;60511;42.686;23.300;2023-04-19T02:14:41;94251.50;;;22.99;29.76
43217;BME280;60511;42.686;23.300;2023-04-19T02:16:41;94157.84;;;22.34;29.89
43217;BME280;60511;42.686;23.300;2023-04-19T02:18:42;94245.69;;;22.97;30.10
43217;BME280;60511;42.686;23.300;2023-04-19T02:20:42;94251.66;;;23.06;29.88
43217;BME280;60511;42.686;23.300;2023-04-19T02:22:43;94252.75;;;23.01;29.82
43217;BME280;60511;42.686;23.300;2023-04-19T02:24:44;94252.63;;;22.98;29.99
43217;BME280;60511;42.686;23.300;2023-04-19T02:26:44;94215.69;;;22.79;29.75
43217;BME280;60511;42.686;23.300;2023-04-19T02:28:45;94250.72;;;22.98;29.93
43217;BME280;60511;42.686;23.300;2023-04-19T02:30:47;94212.22;;;22.78;29.85
43217;BME280;60511;42.686;23.300;2023-04-19T02:32:48;94241.84;;;22.98;29.67
43217;BME280;60511;42.686;23.300;2023-04-19T02:34:49;94243.00;;;22.97;29.86
43217;BME280;60511;42.686;23.300;2023-04-19T02:36:49;94239.06;;;22.94;30.05
43217;BME280;60511;42.686;23.300;2023-04-19T02:38:50;94236.69;;;22.89;29.71
43217;BME280;60511;42.686;23.300;2023-04-19T02:40:50;94209.28;;;22.67;30.01
43217;BME280;60511;42.686;23.300;2023-04-19T02:42:51;94216.75;;;22.74;29.70
43217;BME280;60511;42.686;23.300;2023-04-19T02:44:51;94240.16;;;22.90;29.80
43217;BME280;60511;42.686;23.300;2023-04-19T02:46:52;94210.09;;;22.68;29.95
43217;BME280;60511;42.686;23.300;2023-04-19T02:48:53;94242.56;;;22.95;29.93
43217;BME280;60511;42.686;23.300;2023-04-19T02:50:53;94235.19;;;22.92;30.19
43217;BME280;60511;42.686;23.300;2023-04-19T02:52:54;94224.63;;;22.83;29.69
43217;BME280;60511;42.686;23.300;2023-04-19T02:54:54;94239.81;;;22.91;29.87
43217;BME280;60511;42.686;23.300;2023-04-19T02:56:54;94225.41;;;22.83;30.01
43217;BME280;60511;42.686;23.300;2023-04-19T02:58:59;94238.31;;;22.94;30.07
43217;BME280;60511;42.686;23.300;2023-04-19T03:01:00;94189.56;;;22.63;29.75
43217;BME280;60511;42.686;23.300;2023-04-19T03:03:00;94240.22;;;22.93;29.60
43217;BME280;60511;42.686;23.300;2023-04-19T03:05:03;94200.66;;;22.58;29.74
43217;BME280;60511;42.686;23.300;2023-04-19T03:07:07;94198.81;;;22.62;29.82
43217;BME280;60511;42.686;23.300;2023-04-19T03:09:07;94206.25;;;22.69;29.80
43217;BME280;60511;42.686;23.300;2023-04-19T03:11:10;94228.88;;;22.84;29.64
43217;BME280;60511;42.686;23.300;2023-04-19T03:13:10;94237.09;;;22.91;29.88
43217;BME280;60511;42.686;23.300;2023-04-19T03:15:11;94229.72;;;22.88;29.62
43217;BME280;60511;42.686;23.300;2023-04-19T03:17:11;94215.63;;;22.75;30.01
43217;BME280;60511;42.686;23.300;2023-04-19T03:19:12;94220.25;;;22.98;29.54
43217;BME280;60511;42.686;23.300;2023-04-19T03:21:12;94234.16;;;23.19;29.64
43217;BME280;60511;42.686;23.300;2023-04-19T03:23:12;94222.97;;;23.21;29.76
43217;BME280;60511;42.686;23.300;2023-04-19T03:25:13;94227.00;;;23.31;29.49
43217;BME280;60511;42.686;23.300;2023-04-19T03:27:13;94224.28;;;23.31;29.85
43217;BME280;60511;42.686;23.300;2023-04-19T03:29:13;94232.81;;;23.33;29.66
43217;BME280;60511;42.686;23.300;2023-04-19T03:31:14;94208.63;;;23.17;29.56
43217;BME280;60511;42.686;23.300;2023-04-19T03:33:14;94201.97;;;23.11;29.71
43217;BME280;60511;42.686;23.300;2023-04-19T03:35:15;94237.94;;;23.38;29.66
43217;BME280;60511;42.686;23.300;2023-04-19T03:37:15;94228.91;;;23.30;29.86
43217;BME280;60511;42.686;23.300;2023-04-19T03:39:15;94149.41;;;22.81;29.75
43217;BME280;60511;42.686;23.300;2023-04-19T03:41:20;94234.13;;;23.42;29.75
43217;BME280;60511;42.686;23.300;2023-04-19T03:43:20;94234.56;;;23.44;29.45
43217;BME280;60511;42.686;23.300;2023-04-19T03:45:21;94211.16;;;23.29;29.46
43217;BME280;60511;42.686;23.300;2023-04-19T03:47:22;94196.34;;;23.19;29.56
43217;BME280;60511;42.686;23.300;2023-04-19T03:49:22;94150.19;;;22.82;29.65
43217;BME280;60511;42.686;23.300;2023-04-19T03:51:22;94228.78;;;23.46;29.73
43217;BME280;60511;42.686;23.300;2023-04-19T03:53:23;94228.81;;;23.50;29.75
43217;BME280;60511;42.686;23.300;2023-04-19T03:55:23;94196.03;;;23.24;29.89
43217;BME280;60511;42.686;23.300;2023-04-19T03:57:24;94234.63;;;23.48;29.56
43217;BME280;60511;42.686;23.300;2023-04-19T03:59:24;94235.03;;;23.50;29.51
43217;BME280;60511;42.686;23.300;2023-04-19T04:01:25;94235.03;;;23.50;29.59
43217;BME280;60511;42.686;23.300;2023-04-19T04:03:26;94193.41;;;23.28;29.64
43217;BME280;60511;42.686;23.300;2023-04-19T04:05:27;94232.38;;;23.54;29.78
43217;BME280;60511;42.686;23.300;2023-04-19T04:07:28;94216.84;;;23.47;29.56
43217;BME280;60511;42.686;23.300;2023-04-19T04:09:28;94220.31;;;23.47;29.52
43217;BME280;60511;42.686;23.300;2023-04-19T04:11:28;94237.34;;;23.52;29.48
43217;BME280;60511;42.686;23.300;2023-04-19T04:13:29;94218.00;;;23.46;29.50
43217;BME280;60511;42.686;23.300;2023-04-19T04:15:29;94217.56;;;23.44;29.66
43217;BME280;60511;42.686;23.300;2023-04-19T04:17:29;94217.94;;;23.42;29.69
43217;BME280;60511;42.686;23.300;2023-04-19T04:19:30;94207.13;;;23.42;29.67
43217;BME280;60511;42.686;23.300;2023-04-19T04:21:30;94233.16;;;23.54;29.66
43217;BME280;60511;42.686;23.300;2023-04-19T04:23:31;94234.34;;;23.57;29.65
43217;BME280;60511;42.686;23.300;2023-04-19T04:25:33;94221.13;;;23.48;29.57
43217;BME280;60511;42.686;23.300;2023-04-19T04:27:36;94244.06;;;23.61;29.71
43217;BME280;60511;42.686;23.300;2023-04-19T04:29:38;94246.00;;;23.61;29.66
43217;BME280;60511;42.686;23.300;2023-04-19T04:31:38;94228.78;;;23.46;29.81
43217;BME280;60511;42.686;23.300;2023-04-19T04:33:39;94229.16;;;23.44;29.66
43217;BME280;60511;42.686;23.300;2023-04-19T04:35:40;94238.84;;;23.49;29.65
43217;BME280;60511;42.686;23.300;2023-04-19T04:37:42;94245.94;;;23.57;29.83
43217;BME280;60511;42.686;23.300;2023-04-19T04:39:42;94233.03;;;23.47;29.67
43217;BME280;60511;42.686;23.300;2023-04-19T04:41:43;94208.94;;;23.35;29.49
43217;BME280;60511;42.686;23.300;2023-04-19T04:43:43;94229.63;;;23.50;29.56
43217;BME280;60511;42.686;23.300;2023-04-19T04:45:48;94256.88;;;23.64;29.53
43217;BME280;60511;42.686;23.300;2023-04-19T04:47:49;94225.72;;;23.47;29.39
43217;BME280;60511;42.686;23.300;2023-04-19T04:49:50;94249.13;;;23.63;29.52
43217;BME280;60511;42.686;23.300;2023-04-19T04:51:52;94248.00;;;23.64;29.45
43217;BME280;60511;42.686;23.300;2023-04-19T04:53:52;94250.25;;;23.62;29.64
43217;BME280;60511;42.686;23.300;2023-04-19T04:55:53;94249.13;;;23.63;29.46
43217;BME280;60511;42.686;23.300;2023-04-19T04:57:54;94159.88;;;23.06;29.67
43217;BME280;60511;42.686;23.300;2023-04-19T04:59:54;94217.50;;;23.40;29.49
43217;BME280;60511;42.686;23.300;2023-04-19T05:01:55;94200.34;;;23.29;29.74
43217;BME280;60511;42.686;23.300;2023-04-19T05:03:55;94252.22;;;23.65;29.73
43217;BME280;60511;42.686;23.300;2023-04-19T05:05:56;94251.41;;;23.61;29.53
43217;BME280;60511;42.686;23.300;2023-04-19T05:07:56;94246.34;;;23.59;29.46
43217;BME280;60511;42.686;23.300;2023-04-19T05:09:57;94219.53;;;23.47;29.60
43217;BME280;60511;42.686;23.300;2023-04-19T05:11:57;94224.22;;;23.50;29.43
43217;BME280;60511;42.686;23.300;2023-04-19T05:13:57;94210.19;;;23.41;29.67
43217;BME280;60511;42.686;23.300;2023-04-19T05:15:58;94262.00;;;23.73;29.67
43217;BME280;60511;42.686;23.300;2023-04-19T05:17:58;94244.06;;;23.61;29.58
43217;BME280;60511;42.686;23.300;2023-04-19T05:19:59;94241.28;;;23.54;29.54
43217;BME280;60511;42.686;23.300;2023-04-19T05:21:59;94261.53;;;23.67;29.68
43217;BME280;60511;42.686;23.300;2023-04-19T05:24:00;94263.09;;;23.69;29.56
43217;BME280;60511;42.686;23.300;2023-04-19T05:26:00;94257.28;;;23.66;29.68
43217;BME280;60511;42.686;23.300;2023-04-19T05:28:00;94261.50;;;23.64;29.76
43217;BME280;60511;42.686;23.300;2023-04-19T05:30:03;94264.66;;;23.70;29.38
43217;BME280;60511;42.686;23.300;2023-04-19T05:32:04;94265.06;;;23.72;29.54
43217;BME280;60511;42.686;23.300;2023-04-19T05:34:05;94248.41;;;23.66;29.42
43217;BME280;60511;42.686;23.300;2023-04-19T05:36:06;94262.44;;;23.75;29.47
43217;BME280;60511;42.686;23.300;2023-04-19T05:38:06;94270.53;;;23.75;29.60
43217;BME280;60511;42.686;23.300;2023-04-19T05:40:07;94266.69;;;23.76;29.68
43217;BME280;60511;42.686;23.300;2023-04-19T05:42:10;94106.91;;;22.75;29.61
43217;BME280;60511;42.686;23.300;2023-04-19T05:44:11;94221.16;;;23.52;29.36
43217;BME280;60511;42.686;23.300;2023-04-19T05:46:11;94251.97;;;23.74;29.46
43217;BME280;60511;42.686;23.300;2023-04-19T05:48:12;94255.94;;;23.80;29.23
43217;BME280;60511;42.686;23.300;2023-04-19T05:50:12;94254.66;;;23.74;29.38
43217;BME280;60511;42.686;23.300;2023-04-19T05:52:14;94266.75;;;23.80;29.45
43217;BME280;60511;42.686;23.300;2023-04-19T05:54:14;94261.34;;;23.80;29.48
43217;BME280;60511;42.686;23.300;2023-04-19T05:56:15;94252.34;;;23.72;29.47
43217;BME280;60511;42.686;23.300;2023-04-19T05:58:17;94239.91;;;23.67;29.59
43217;BME280;60511;42.686;23.300;2023-04-19T06:00:18;94268.00;;;23.86;29.51
43217;BME280;60511;42.686;23.300;2023-04-19T06:02:18;94273.84;;;23.88;29.43
43217;BME280;60511;42.686;23.300;2023-04-19T06:04:18;94272.38;;;23.94;29.46
43217;BME280;60511;42.686;23.300;2023-04-19T06:06:21;94272.34;;;23.91;29.52
43217;BME280;60511;42.686;23.300;2023-04-19T06:08:21;94271.09;;;23.84;29.58
43217;BME280;60511;42.686;23.300;2023-04-19T06:10:22;94235.06;;;23.54;29.39
43217;BME280;60511;42.686;23.300;2023-04-19T06:12:23;94258.81;;;23.67;29.70
43217;BME280;60511;42.686;23.300;2023-04-19T06:14:26;94245.94;;;23.57;29.65
43217;BME280;60511;42.686;23.300;2023-04-19T06:16:28;94237.41;;;23.55;29.66
43217;BME280;60511;42.686;23.300;2023-04-19T06:18:28;94251.81;;;23.63;29.73
43217;BME280;60511;42.686;23.300;2023-04-19T06:20:30;94230.41;;;23.51;29.64
43217;BME280;60511;42.686;23.300;2023-04-19T06:22:30;94271.31;;;23.76;29.65
43217;BME280;60511;42.686;23.300;2023-04-19T06:24:30;94273.22;;;23.75;29.72
43217;BME280;60511;42.686;23.300;2023-04-19T06:26:31;94276.72;;;23.76;29.89
43217;BME280;60511;42.686;23.300;2023-04-19T06:28:31;94255.63;;;23.58;29.81
43217;BME280;60511;42.686;23.300;2023-04-19T06:30:31;94274.31;;;23.71;29.98
43217;BME280;60511;42.686;23.300;2023-04-19T06:32:32;94237.97;;;23.41;29.69
43217;BME280;60511;42.686;23.300;2023-04-19T06:34:34;94271.91;;;23.65;29.50
43217;BME280;60511;42.686;23.300;2023-04-19T06:36:34;94256.25;;;23.52;29.77
43217;BME280;60511;42.686;23.300;2023-04-19T06:38:37;94273.78;;;23.61;29.63
43217;BME280;60511;42.686;23.300;2023-04-19T06:40:37;94254.66;;;23.47;29.65
43217;BME280;60511;42.686;23.300;2023-04-19T06:42:38;94231.69;;;23.34;29.85
43217;BME280;60511;42.686;23.300;2023-04-19T06:44:38;94254.66;;;23.47;30.01
43217;BME280;60511;42.686;23.300;2023-04-19T06:46:39;94269.47;;;23.57;30.03
43217;BME280;60511;42.686;23.300;2023-04-19T06:48:40;94241.47;;;23.42;30.03
43217;BME280;60511;42.686;23.300;2023-04-19T06:50:41;94281.66;;;23.70;30.11
43217;BME280;60511;42.686;23.300;2023-04-19T06:52:41;94281.66;;;23.70;30.02
43217;BME280;60511;42.686;23.300;2023-04-19T06:54:41;94232.53;;;23.38;30.05
43217;BME280;60511;42.686;23.300;2023-04-19T06:56:47;94285.91;;;23.71;29.80
43217;BME280;60511;42.686;23.300;2023-04-19T06:58:48;94277.72;;;23.64;30.05
43217;BME280;60511;42.686;23.300;2023-04-19T07:00:48;94284.78;;;23.72;30.11
43217;BME280;60511;42.686;23.300;2023-04-19T07:02:49;94289.03;;;23.73;29.86
43217;BME280;60511;42.686;23.300;2023-04-19T07:04:51;94265.19;;;23.56;30.02
43217;BME280;60511;42.686;23.300;2023-04-19T07:06:51;94253.63;;;23.55;30.01
43217;BME280;60511;42.686;23.300;2023-04-19T07:08:52;94227.47;;;23.36;30.21
43217;BME280;60511;42.686;23.300;2023-04-19T07:10:52;94239.59;;;23.46;30.12
43217;BME280;60511;42.686;23.300;2023-04-19T07:12:53;94252.31;;;23.45;29.84
43217;BME280;60511;42.686;23.300;2023-04-19T07:14:53;94297.22;;;23.77;29.73
43217;BME280;60511;42.686;23.300;2023-04-19T07:16:56;94283.16;;;23.67;30.10
43217;BME280;60511;42.686;23.300;2023-04-19T07:18:56;94287.50;;;23.76;30.02
43217;BME280;60511;42.686;23.300;2023-04-19T07:20:57;94259.44;;;23.57;30.16
43217;BME280;60511;42.686;23.300;2023-04-19T07:22:58;94269.16;;;23.62;30.24
43217;BME280;60511;42.686;23.300;2023-04-19T07:24:58;94286.69;;;23.72;30.12
43217;BME280;60511;42.686;23.300;2023-04-19T07:27:01;94291.63;;;23.66;30.25
43217;BME280;60511;42.686;23.300;2023-04-19T07:29:01;94297.06;;;23.70;30.16
43217;BME280;60511;42.686;23.300;2023-04-19T07:31:02;94299.78;;;23.70;30.11
43217;BME280;60511;42.686;23.300;2023-04-19T07:33:03;94293.94;;;23.67;29.93
43217;BME280;60511;42.686;23.300;2023-04-19T07:35:04;94293.19;;;23.67;30.00
43217;BME280;60511;42.686;23.300;2023-04-19T07:37:05;94306.75;;;23.71;30.00
43217;BME280;60511;42.686;23.300;2023-04-19T07:39:05;94293.59;;;23.69;30.21
43217;BME280;60511;42.686;23.300;2023-04-19T07:41:06;94258.13;;;23.47;30.17
43217;BME280;60511;42.686;23.300;2023-04-19T07:43:06;94260.47;;;23.49;30.32
43217;BME280;60511;42.686;23.300;2023-04-19T07:45:07;94268.28;;;23.54;30.23
43217;BME280;60511;42.686;23.300;2023-04-19T07:47:08;94277.66;;;23.60;30.12
43217;BME280;60511;42.686;23.300;2023-04-19T07:49:08;94295.22;;;23.74;30.18
43217;BME280;60511;42.686;23.300;2023-04-19T07:51:14;94283.13;;;23.64;30.12
43217;BME280;60511;42.686;23.300;2023-04-19T07:53:15;94285.44;;;23.65;30.00
43217;BME280;60511;42.686;23.300;2023-04-19T07:55:16;94297.91;;;23.74;30.04
43217;BME280;60511;42.686;23.300;2023-04-19T07:57:16;94264.84;;;23.57;30.24
43217;BME280;60511;42.686;23.300;2023-04-19T07:59:16;94261.66;;;23.52;30.17
43217;BME280;60511;42.686;23.300;2023-04-19T08:01:17;94167.78;;;22.95;30.30
43217;BME280;60511;42.686;23.300;2023-04-19T08:03:17;94242.53;;;23.37;30.43
43217;BME280;60511;42.686;23.300;2023-04-19T08:05:18;94252.72;;;23.47;30.27
43217;BME280;60511;42.686;23.300;2023-04-19T08:07:19;94245.41;;;23.48;30.16
43217;BME280;60511;42.686;23.300;2023-04-19T08:09:20;94298.78;;;23.78;30.16
43217;BME280;60511;42.686;23.300;2023-04-19T08:11:20;94287.97;;;23.78;30.22
43217;BME280;60511;42.686;23.300;2023-04-19T08:13:21;94285.84;;;23.67;29.89
43217;BME280;60511;42.686;23.300;2023-04-19T08:15:22;94268.72;;;23.60;30.06
43217;BME280;60511;42.686;23.300;2023-04-19T08:17:22;94268.38;;;23.61;30.41
43217;BME280;60511;42.686;23.300;2023-04-19T08:19:23;94269.88;;;23.59;30.13
43217;BME280;60511;42.686;23.300;2023-04-19T08:21:24;94281.25;;;23.68;30.08
43217;BME280;60511;42.686;23.300;2023-04-19T08:23:25;94300.69;;;23.77;30.19
43217;BME280;60511;42.686;23.300;2023-04-19T08:25:26;94265.63;;;23.58;30.27
43217;BME280;60511;42.686;23.300;2023-04-19T08:27:27;94272.25;;;23.60;30.29
43217;BME280;60511;42.686;23.300;2023-04-19T08:29:28;94296.06;;;23.78;30.28
43217;BME280;60511;42.686;23.300;2023-04-19T08:31:28;94253.13;;;23.50;29.97
43217;BME280;60511;42.686;23.300;2023-04-19T08:33:29;94275.41;;;23.66;30.23
43217;BME280;60511;42.686;23.300;2023-04-19T08:35:29;94244.69;;;23.51;30.43
43217;BME280;60511;42.686;23.300;2023-04-19T08:37:30;94293.44;;;23.81;30.20
43217;BME280;60511;42.686;23.300;2023-04-19T08:39:31;94288.03;;;23.81;30.26
43217;BME280;60511;42.686;23.300;2023-04-19T08:41:31;94268.88;;;23.67;30.19
43217;BME280;60511;42.686;23.300;2023-04-19T08:43:34;94287.66;;;23.83;30.37
43217;BME280;60511;42.686;23.300;2023-04-19T08:45:36;94276.72;;;23.76;30.19
43217;BME280;60511;42.686;23.300;2023-04-19T08:47:38;94283.41;;;23.82;29.94
43217;BME280;60511;42.686;23.300;2023-04-19T08:49:39;94273.00;;;23.84;30.14
43217;BME280;60511;42.686;23.300;2023-04-19T08:51:40;94279.97;;;23.85;30.16
43217;BME280;60511;42.686;23.300;2023-04-19T08:53:42;94278.09;;;23.89;30.18
43217;BME280;60511;42.686;23.300;2023-04-19T08:55:43;94278.19;;;23.96;30.06
43217;BME280;60511;42.686;23.300;2023-04-19T08:57:44;94235.41;;;23.75;29.99
43217;BME280;60511;42.686;23.300;2023-04-19T08:59:44;94275.56;;;24.00;29.90
43217;BME280;60511;42.686;23.300;2023-04-19T09:01:48;94263.56;;;23.97;29.85
43217;BME280;60511;42.686;23.300;2023-04-19T09:03:48;94243.97;;;23.77;29.73
43217;BME280;60511;42.686;23.300;2023-04-19T09:05:49;94271.34;;;24.02;29.91
43217;BME280;60511;42.686;23.300;2023-04-19T09:07:50;94182.50;;;23.47;29.77
43217;BME280;60511;42.686;23.300;2023-04-19T09:10:12;94269.47;;;24.06;29.67
43217;BME280;60511;42.686;23.300;2023-04-19T09:12:15;94257.56;;;24.11;29.52
43217;BME280;60511;42.686;23.300;2023-04-19T09:14:18;94264.16;;;24.14;29.54
43217;BME280;60511;42.686;23.300;2023-04-19T09:16:23;94233.13;;;24.04;29.37
43217;BME280;60511;42.686;23.300;2023-04-19T09:18:24;94228.81;;;23.99;29.38
43217;BME280;60511;42.686;23.300;2023-04-19T09:20:35;94257.38;;;24.27;29.38
43217;BME280;60511;42.686;23.300;2023-04-19T09:22:36;94259.31;;;24.26;29.60
43217;BME280;60511;42.686;23.300;2023-04-19T09:24:37;94215.19;;;23.92;29.62
43217;BME280;60511;42.686;23.300;2023-04-19T09:26:38;94256.88;;;24.18;29.56
43217;BME280;60511;42.686;23.300;2023-04-19T09:28:55;94212.50;;;23.92;29.45
43217;BME280;60511;42.686;23.300;2023-04-19T09:30:56;94230.06;;;24.05;29.56
43217;BME280;60511;42.686;23.300;2023-04-19T09:32:57;94253.91;;;24.26;29.48
43217;BME280;60511;42.686;23.300;2023-04-19T09:34:58;94216.84;;;24.00;29.49
43217;BME280;60511;42.686;23.300;2023-04-19T09:37:11;94234.00;;;24.12;29.45
43217;BME280;60511;42.686;23.300;2023-04-19T09:39:12;94227.00;;;24.07;29.68
43217;BME280;60511;42.686;23.300;2023-04-19T09:41:13;94264.31;;;24.24;29.57
43217;BME280;60511;42.686;23.300;2023-04-19T09:43:22;94258.16;;;24.27;29.47
43217;BME280;60511;42.686;23.300;2023-04-19T09:45:23;94200.13;;;23.91;29.57
43217;BME280;60511;42.686;23.300;2023-04-19T09:47:24;94165.78;;;23.65;29.45
43217;BME280;60511;42.686;23.300;2023-04-19T09:49:25;94243.03;;;24.23;29.55
43217;BME280;60511;42.686;23.300;2023-04-19T09:51:39;94244.59;;;24.24;29.71
43217;BME280;60511;42.686;23.300;2023-04-19T09:53:40;94240.00;;;24.28;29.55
43217;BME280;60511;42.686;23.300;2023-04-19T09:55:43;94194.44;;;24.00;29.85
43217;BME280;60511;42.686;23.300;2023-04-19T09:57:45;94240.84;;;24.32;29.70
43217;BME280;60511;42.686;23.300;2023-04-19T09:59:45;94240.06;;;24.32;29.67
43217;BME280;60511;42.686;23.300;2023-04-19T10:01:47;94211.22;;;24.13;29.52
43217;BME280;60511;42.686;23.300;2023-04-19T10:03:52;94204.69;;;24.14;29.54
43217;BME280;60511;42.686;23.300;2023-04-19T10:05:53;94225.78;;;24.35;29.64
43217;BME280;60511;42.686;23.300;2023-04-19T10:07:54;94210.63;;;24.26;29.56
43217;BME280;60511;42.686;23.300;2023-04-19T10:09:57;94224.66;;;24.36;29.54
43217;BME280;60511;42.686;23.300;2023-04-19T10:11:59;94231.63;;;24.37;29.36
43217;BME280;60511;42.686;23.300;2023-04-19T10:14:03;94230.47;;;24.38;29.42
43217;BME280;60511;42.686;23.300;2023-04-19T10:16:04;94218.44;;;24.35;29.52
43217;BME280;60511;42.686;23.300;2023-04-19T10:18:05;94224.28;;;24.37;29.59
43217;BME280;60511;42.686;23.300;2023-04-19T10:20:09;94136.19;;;23.76;29.65
43217;BME280;60511;42.686;23.300;2023-04-19T10:22:11;94207.16;;;24.26;29.48
43217;BME280;60511;42.686;23.300;2023-04-19T10:24:14;94197.06;;;24.23;29.47
43217;BME280;60511;42.686;23.300;2023-04-19T10:26:17;94177.69;;;24.17;29.50
43217;BME280;60511;42.686;23.300;2023-04-19T10:28:19;94201.84;;;24.37;29.26
43217;BME280;60511;42.686;23.300;2023-04-19T10:30:21;94183.63;;;24.30;29.40
43217;BME280;60511;42.686;23.300;2023-04-19T10:32:25;94205.47;;;24.48;29.47
43217;BME280;60511;42.686;23.300;2023-04-19T10:34:38;94154.00;;;24.07;29.27